createdAt,value
2023-04-18T00:00:15.909Z,7.7748
2023-04-18T00:01:16.429Z,7.7783
2023-04-18T00:02:16.984Z,7.8080
2023-04-18T00:03:17.944Z,7.8112
2023-04-18T00:04:19.800Z,7.8024
2023-04-18T00:05:21.766Z,7.7859
2023-04-18T00:06:22.673Z,7.8651
2023-04-18T00:07:23.156Z,7.7973
2023-04-18T00:08:23.632Z,7.8796
2023-04-18T00:09:24.152Z,7.8647
2023-04-18T00:10:24.743Z,7.8914
2023-04-18T00:11:25.199Z,7.9669
2023-04-18T00:12:25.816Z,8.0092
2023-04-18T00:13:26.252Z,7.9635
2023-04-18T00:14:26.763Z,7.9550
2023-04-18T00:15:27.218Z,7.9665
2023-04-18T00:16:27.818Z,7.9831
2023-04-18T00:17:28.414Z,7.9604
2023-04-18T00:18:28.946Z,8.0115
2023-04-18T00:19:29.418Z,7.9408
2023-04-18T00:20:29.928Z,7.9398
2023-04-18T00:21:30.346Z,7.9238
2023-04-18T00:22:30.830Z,8.0099
2023-04-18T00:23:31.432Z,8.0179
2023-04-18T00:24:31.889Z,8.0285
2023-04-18T00:25:32.459Z,8.0145
2023-04-18T00:26:32.919Z,8.0041
2023-04-18T00:27:33.432Z,7.9417
2023-04-18T00:28:34.003Z,7.9940
2023-04-18T00:29:34.473Z,7.9900
2023-04-18T00:30:35.998Z,7.9830
2023-04-18T00:31:36.566Z,8.0753
2023-04-18T00:32:37.053Z,7.9937
2023-04-18T00:33:37.631Z,7.9961
2023-04-18T00:34:38.088Z,8.0323
2023-04-18T00:35:38.579Z,8.0536
2023-04-18T00:36:39.078Z,8.0074
2023-04-18T00:37:39.529Z,8.0253
2023-04-18T00:38:40.114Z,8.0423
2023-04-18T00:39:40.656Z,7.9884
2023-04-18T00:40:41.200Z,8.0224
2023-04-18T00:41:41.723Z,8.0805
2023-04-18T00:42:42.410Z,8.0466
2023-04-18T00:43:43.072Z,8.1170
2023-04-18T00:44:43.616Z,8.1176
2023-04-18T00:45:44.073Z,8.0965
2023-04-18T00:46:44.554Z,8.0877
2023-04-18T00:47:45.105Z,8.0891
2023-04-18T00:48:45.657Z,8.0497
2023-04-18T00:49:46.152Z,8.0632
2023-04-18T00:50:46.654Z,8.0491
2023-04-18T00:51:47.178Z,8.0480
2023-04-18T00:52:47.700Z,8.1705
2023-04-18T00:53:48.343Z,8.1403
2023-04-18T00:54:49.015Z,8.1155
2023-04-18T00:55:49.524Z,8.0354
2023-04-18T00:56:49.973Z,8.0868
2023-04-18T00:57:50.510Z,8.0975
2023-04-18T00:58:50.953Z,8.0985
2023-04-18T00:59:51.452Z,8.1175
2023-04-18T01:00:51.927Z,8.0886
2023-04-18T01:01:52.493Z,8.0867
2023-04-18T01:02:53.190Z,8.0498
2023-04-18T01:03:54.630Z,8.0700
2023-04-18T01:04:55.580Z,8.0573
2023-04-18T01:05:56.182Z,8.0625
2023-04-18T01:06:56.651Z,8.0766
2023-04-18T01:07:57.093Z,8.1074
2023-04-18T01:08:57.606Z,8.0404
2023-04-18T01:09:58.054Z,7.9931
2023-04-18T01:10:58.499Z,8.0514
2023-04-18T01:11:58.965Z,8.1001
2023-04-18T01:12:59.426Z,8.0876
2023-04-18T01:13:59.878Z,8.1384
2023-04-18T01:15:00.370Z,8.1314
2023-04-18T01:16:00.850Z,8.1378
2023-04-18T01:17:01.352Z,8.1496
2023-04-18T01:18:01.892Z,8.1464
2023-04-18T01:19:02.416Z,8.0938
2023-04-18T01:20:02.952Z,8.1448
2023-04-18T01:21:03.463Z,8.1066
2023-04-18T01:22:03.951Z,8.0554
2023-04-18T01:23:04.431Z,8.1321
2023-04-18T01:24:04.904Z,8.0975
2023-04-18T01:25:05.361Z,8.0843
2023-04-18T01:26:05.822Z,8.1051
2023-04-18T01:27:06.303Z,8.1147
2023-04-18T01:28:06.731Z,8.0866
2023-04-18T01:29:07.240Z,8.0935
2023-04-18T01:30:07.686Z,8.1123
2023-04-18T01:31:08.159Z,8.1560
2023-04-18T01:32:08.649Z,8.0719
2023-04-18T01:33:09.110Z,8.1139
2023-04-18T01:34:09.629Z,8.1536
2023-04-18T01:35:10.087Z,8.1149
2023-04-18T01:36:10.562Z,8.1092
2023-04-18T01:37:11.075Z,8.0593
2023-04-18T01:38:11.628Z,8.1106
2023-04-18T01:39:12.195Z,8.1415
2023-04-18T01:40:12.705Z,8.0120
2023-04-18T01:41:13.191Z,8.0982
2023-04-18T01:42:13.660Z,8.1148
2023-04-18T01:43:14.105Z,8.1106
2023-04-18T01:44:14.776Z,8.1185
2023-04-18T01:45:15.894Z,8.1212
2023-04-18T01:46:16.404Z,8.1395
2023-04-18T01:47:16.844Z,8.1294
2023-04-18T01:48:17.281Z,8.1447
2023-04-18T01:49:17.769Z,8.0882
2023-04-18T01:50:18.334Z,8.0686
2023-04-18T01:51:18.911Z,8.0345
2023-04-18T01:52:19.391Z,8.0428
2023-04-18T01:53:19.843Z,8.0704
2023-04-18T01:54:20.366Z,8.0178
2023-04-18T01:55:20.861Z,7.9991
2023-04-18T01:56:21.480Z,8.0309
2023-04-18T01:57:22.282Z,8.0198
2023-04-18T01:58:23.118Z,8.0811
2023-04-18T01:59:23.581Z,8.0888
2023-04-18T02:00:24.092Z,8.0838
2023-04-18T02:01:24.701Z,8.1086
2023-04-18T02:02:25.565Z,8.0898
2023-04-18T02:03:26.432Z,8.0840
2023-04-18T02:04:27.502Z,8.0121
2023-04-18T02:05:28.017Z,8.0723
2023-04-18T02:06:28.567Z,8.0473
2023-04-18T02:07:29.100Z,8.0359
2023-04-18T02:08:29.635Z,8.0697
2023-04-18T02:09:30.221Z,8.1548
2023-04-18T02:10:30.748Z,8.0434
2023-04-18T02:11:31.317Z,7.9922
2023-04-18T02:12:31.871Z,8.0446
2023-04-18T02:13:32.488Z,8.0773
2023-04-18T02:14:33.030Z,8.0875
2023-04-18T02:15:33.595Z,8.1087
2023-04-18T02:16:34.202Z,8.1100
2023-04-18T02:17:34.905Z,8.0565
2023-04-18T02:18:35.517Z,8.0575
2023-04-18T02:19:36.050Z,8.0417
2023-04-18T02:20:36.565Z,8.0215
2023-04-18T02:21:37.076Z,8.0122
2023-04-18T02:22:37.682Z,7.9997
2023-04-18T02:23:38.205Z,8.0632
2023-04-18T02:24:38.736Z,8.0262
2023-04-18T02:25:39.260Z,8.0685
2023-04-18T02:26:39.860Z,8.0156
2023-04-18T02:27:40.379Z,8.0676
2023-04-18T02:28:40.966Z,8.0804
2023-04-18T02:29:41.463Z,8.1046
2023-04-18T02:30:41.942Z,8.0969
2023-04-18T02:31:42.584Z,8.0825
2023-04-18T02:32:43.171Z,8.0966
2023-04-18T02:33:43.679Z,8.0496
2023-04-18T02:34:44.255Z,8.1115
2023-04-18T02:35:44.832Z,8.1445
2023-04-18T02:36:45.443Z,8.0658
2023-04-18T02:37:46.024Z,8.1445
2023-04-18T02:38:46.853Z,8.0411
2023-04-18T02:39:47.413Z,8.0109
2023-04-18T02:40:47.943Z,8.0412
2023-04-18T02:41:48.573Z,8.0352
2023-04-18T02:42:49.086Z,8.0656
2023-04-18T02:43:49.631Z,8.0138
2023-04-18T02:44:50.117Z,8.0586
2023-04-18T02:45:50.702Z,8.0662
2023-04-18T02:46:51.403Z,8.0150
2023-04-18T02:47:56.176Z,8.0338
2023-04-18T02:48:52.550Z,8.0524
2023-04-18T02:49:53.105Z,8.0326
2023-04-18T02:50:53.752Z,8.0521
2023-04-18T02:51:54.282Z,8.0223
2023-04-18T02:52:54.859Z,8.0708
2023-04-18T02:53:55.393Z,8.0755
2023-04-18T02:54:55.991Z,8.0599
2023-04-18T02:55:56.489Z,8.0251
2023-04-18T02:56:57.133Z,8.0447
2023-04-18T02:57:57.721Z,8.0211
2023-04-18T02:58:58.253Z,7.9915
2023-04-18T02:59:58.793Z,8.0264
2023-04-18T03:00:59.404Z,8.0201
2023-04-18T03:02:00.024Z,8.0137
2023-04-18T03:03:00.655Z,8.0045
2023-04-18T03:04:01.211Z,8.0590
2023-04-18T03:05:01.775Z,7.9963
2023-04-18T03:06:02.338Z,8.0148
2023-04-18T03:07:02.903Z,7.9989
2023-04-18T03:08:03.622Z,8.0146
2023-04-18T03:09:04.401Z,8.0031
2023-04-18T03:10:04.990Z,8.0417
2023-04-18T03:11:05.460Z,8.0392
2023-04-18T03:12:06.158Z,7.9641
2023-04-18T03:13:06.649Z,8.0030
2023-04-18T03:14:07.180Z,7.9671
2023-04-18T03:15:07.756Z,7.9960
2023-04-18T03:16:08.317Z,8.0013
2023-04-18T03:17:09.001Z,8.0146
2023-04-18T03:18:09.543Z,8.0336
2023-04-18T03:19:10.098Z,8.0829
2023-04-18T03:20:10.649Z,8.0458
2023-04-18T03:21:11.233Z,8.0457
2023-04-18T03:22:11.788Z,8.0054
2023-04-18T03:23:12.299Z,7.9920
2023-04-18T03:24:13.613Z,7.9820
2023-04-18T03:25:14.888Z,7.9291
2023-04-18T03:26:15.419Z,7.9227
2023-04-18T03:27:16.000Z,7.9620
2023-04-18T03:28:16.527Z,7.9775
2023-04-18T03:29:17.122Z,7.9473
2023-04-18T03:30:17.654Z,7.9638
2023-04-18T03:31:18.258Z,7.9539
2023-04-18T03:32:19.017Z,7.9994
2023-04-18T03:33:19.743Z,7.9676
2023-04-18T03:34:20.227Z,7.9882
2023-04-18T03:35:20.726Z,7.9825
2023-04-18T03:36:21.299Z,8.0361
2023-04-18T03:37:21.870Z,8.0084
2023-04-18T03:38:22.606Z,8.0170
2023-04-18T03:39:23.212Z,8.0327
2023-04-18T03:40:23.764Z,8.0038
2023-04-18T03:41:24.310Z,7.9940
2023-04-18T03:42:24.849Z,8.0257
2023-04-18T03:43:25.461Z,7.9958
2023-04-18T03:44:26.080Z,8.0756
2023-04-18T03:45:26.593Z,7.9983
2023-04-18T03:46:27.132Z,7.9670
2023-04-18T03:47:27.695Z,8.0209
2023-04-18T03:48:28.229Z,7.9614
2023-04-18T03:49:28.746Z,7.9849
2023-04-18T03:50:29.345Z,7.9958
2023-04-18T03:51:29.876Z,7.9447
2023-04-18T03:52:30.467Z,8.0249
2023-04-18T03:53:31.015Z,7.9863
2023-04-18T03:54:31.501Z,8.0030
2023-04-18T03:55:32.049Z,8.0168
2023-04-18T03:56:32.569Z,8.0257
2023-04-18T03:57:33.193Z,7.9997
2023-04-18T03:58:33.720Z,8.0066
2023-04-18T03:59:34.274Z,8.0633
2023-04-18T04:00:34.860Z,8.0596
2023-04-18T04:01:35.425Z,8.0523
2023-04-18T04:02:36.144Z,8.0490
2023-04-18T04:03:37.275Z,8.0648
2023-04-18T04:04:38.256Z,8.0918
2023-04-18T04:05:38.949Z,8.0368
2023-04-18T04:06:39.499Z,8.0296
2023-04-18T04:07:40.154Z,8.0633
2023-04-18T04:08:40.676Z,8.0619
2023-04-18T04:09:41.262Z,8.0193
2023-04-18T04:10:41.754Z,8.0058
2023-04-18T04:11:42.359Z,8.0257
2023-04-18T04:12:42.921Z,7.9881
2023-04-18T04:13:43.484Z,8.0207
2023-04-18T04:14:44.093Z,8.0092
2023-04-18T04:15:44.751Z,8.0355
2023-04-18T04:16:45.326Z,8.0664
2023-04-18T04:17:46.165Z,7.9962
2023-04-18T04:18:46.762Z,8.0266
2023-04-18T04:19:47.350Z,8.0282
2023-04-18T04:20:47.973Z,8.0132
2023-04-18T04:21:48.599Z,7.9795
2023-04-18T04:22:49.176Z,7.9901
2023-04-18T04:23:49.762Z,7.9704
2023-04-18T04:24:50.475Z,7.9648
2023-04-18T04:25:51.021Z,8.0161
2023-04-18T04:26:51.661Z,7.9986
2023-04-18T04:27:52.239Z,8.0026
2023-04-18T04:28:52.853Z,8.0012
2023-04-18T04:29:53.367Z,8.0374
2023-04-18T04:30:53.929Z,8.0264
2023-04-18T04:31:54.467Z,8.0265
2023-04-18T04:32:55.251Z,7.9787
2023-04-18T04:33:55.842Z,8.0374
2023-04-18T04:34:56.490Z,7.9662
2023-04-18T04:35:57.101Z,7.9893
2023-04-18T04:36:57.663Z,7.9853
2023-04-18T04:37:58.216Z,7.9717
2023-04-18T04:38:58.796Z,8.0177
2023-04-18T04:39:59.371Z,7.9950
2023-04-18T04:40:59.919Z,8.0232
2023-04-18T04:42:00.864Z,8.0021
2023-04-18T04:43:01.460Z,7.9856
2023-04-18T04:44:02.063Z,7.9195
2023-04-18T04:45:02.636Z,7.8557
2023-04-18T04:46:03.181Z,7.9548
2023-04-18T04:47:03.931Z,7.9218
2023-04-18T04:48:04.500Z,7.8939
2023-04-18T04:49:05.073Z,7.9919
2023-04-18T04:50:05.607Z,8.0040
2023-04-18T04:51:06.173Z,8.0207
2023-04-18T04:52:06.735Z,8.0279
2023-04-18T04:53:07.319Z,8.0144
2023-04-18T04:54:07.831Z,8.0025
2023-04-18T04:55:08.434Z,8.0355
2023-04-18T04:56:09.180Z,8.0244
2023-04-18T04:57:09.829Z,8.0039
2023-04-18T04:58:10.359Z,8.0452
2023-04-18T04:59:10.884Z,8.0453
2023-04-18T05:00:11.365Z,8.0196
2023-04-18T05:01:11.999Z,8.0087
2023-04-18T05:02:12.620Z,8.0134
2023-04-18T05:03:13.606Z,8.0160
2023-04-18T05:04:15.073Z,7.9796
2023-04-18T05:05:16.827Z,7.9847
2023-04-18T05:06:17.450Z,7.9987
2023-04-18T05:07:18.060Z,8.0740
2023-04-18T05:08:18.669Z,7.9858
2023-04-18T05:09:19.278Z,7.9689
2023-04-18T05:10:19.851Z,7.9592
2023-04-18T05:11:20.425Z,7.9839
2023-04-18T05:12:21.007Z,7.9704
2023-04-18T05:13:21.580Z,8.0097
2023-04-18T05:14:22.190Z,7.9980
2023-04-18T05:15:22.832Z,7.9955
2023-04-18T05:16:23.415Z,8.0154
2023-04-18T05:17:24.195Z,7.9795
2023-04-18T05:18:24.772Z,8.0335
2023-04-18T05:19:25.350Z,8.0293
2023-04-18T05:20:26.199Z,7.9725
2023-04-18T05:21:26.706Z,7.9650
2023-04-18T05:22:27.313Z,7.9925
2023-04-18T05:23:27.894Z,8.0107
2023-04-18T05:24:28.503Z,8.0340
2023-04-18T05:25:29.058Z,7.9913
2023-04-18T05:26:29.599Z,8.0203
2023-04-18T05:27:30.177Z,7.9942
2023-04-18T05:28:30.761Z,8.0775
2023-04-18T05:29:31.411Z,8.0037
2023-04-18T05:30:32.054Z,8.0384
2023-04-18T05:31:32.664Z,8.0726
2023-04-18T05:32:33.288Z,8.0410
2023-04-18T05:33:33.831Z,8.0783
2023-04-18T05:34:36.102Z,8.0591
2023-04-18T05:35:34.781Z,8.0794
2023-04-18T05:36:35.381Z,8.0983
2023-04-18T05:37:36.010Z,8.0718
2023-04-18T05:38:36.657Z,8.1142
2023-04-18T05:39:37.246Z,8.1284
2023-04-18T05:40:37.859Z,8.0861
2023-04-18T05:41:38.502Z,8.0834
2023-04-18T05:42:39.094Z,8.0725
2023-04-18T05:43:39.705Z,8.1232
2023-04-18T05:44:41.336Z,8.0921
2023-04-18T05:45:41.928Z,8.1046
2023-04-18T05:46:42.559Z,8.0938
2023-04-18T05:47:43.336Z,8.1076
2023-04-18T05:48:43.906Z,8.1173
2023-04-18T05:49:44.596Z,8.1063
2023-04-18T05:50:45.210Z,8.0727
2023-04-18T05:51:45.826Z,8.1483
2023-04-18T05:52:46.393Z,8.1997
2023-04-18T05:53:46.981Z,8.1409
2023-04-18T05:54:47.565Z,8.1409
2023-04-18T05:55:48.105Z,8.1510
2023-04-18T05:56:48.864Z,8.1392
2023-04-18T05:57:49.695Z,8.1761
2023-04-18T05:58:50.316Z,8.2047
2023-04-18T05:59:50.893Z,8.2063
2023-04-18T06:00:51.447Z,8.1702
2023-04-18T06:01:52.157Z,8.1769
2023-04-18T06:02:52.937Z,8.1673
2023-04-18T06:03:54.437Z,8.2568
2023-04-18T06:04:55.745Z,8.2198
2023-04-18T06:05:57.062Z,8.2150
2023-04-18T06:06:58.153Z,8.1840
2023-04-18T06:07:58.747Z,8.2170
2023-04-18T06:08:59.377Z,8.2486
2023-04-18T06:09:59.874Z,8.2717
2023-04-18T06:11:00.411Z,8.2639
2023-04-18T06:12:00.940Z,8.2330
2023-04-18T06:13:01.495Z,8.2081
2023-04-18T06:14:02.240Z,8.2484
2023-04-18T06:15:02.866Z,8.2940
2023-04-18T06:16:03.509Z,8.2997
2023-04-18T06:17:04.115Z,8.3373
2023-04-18T06:18:04.749Z,8.3930
2023-04-18T06:19:05.437Z,8.3818
2023-04-18T06:20:05.981Z,8.3789
2023-04-18T06:21:06.503Z,8.4008
2023-04-18T06:22:07.069Z,8.3783
2023-04-18T06:23:07.642Z,8.3820
2023-04-18T06:24:08.172Z,8.3200
2023-04-18T06:25:08.737Z,8.3577
2023-04-18T06:26:09.318Z,8.3957
2023-04-18T06:27:17.683Z,8.4052
2023-04-18T06:28:10.306Z,8.3355
2023-04-18T06:29:10.939Z,8.3243
2023-04-18T06:30:11.467Z,8.3468
2023-04-18T06:31:12.250Z,8.3630
2023-04-18T06:32:12.832Z,8.3935
2023-04-18T06:33:13.434Z,8.4134
2023-04-18T06:34:14.213Z,8.3939
2023-04-18T06:35:15.380Z,8.3991
2023-04-18T06:36:15.944Z,8.3749
2023-04-18T06:37:16.478Z,8.3599
2023-04-18T06:38:17.103Z,8.4068
2023-04-18T06:39:17.707Z,8.3671
2023-04-18T06:40:18.271Z,8.3913
2023-04-18T06:41:18.827Z,8.3249
2023-04-18T06:42:22.079Z,8.4085
2023-04-18T06:43:20.988Z,8.4325
2023-04-18T06:44:21.552Z,8.4739
2023-04-18T06:45:22.118Z,8.5468
2023-04-18T06:46:22.864Z,8.5257
2023-04-18T06:47:23.702Z,8.4652
2023-04-18T06:48:24.267Z,8.4791
2023-04-18T06:49:26.477Z,8.4795
2023-04-18T06:50:24.914Z,8.5519
2023-04-18T06:51:25.434Z,8.5233
2023-04-18T06:52:25.998Z,8.5263
2023-04-18T06:53:26.513Z,8.4998
2023-04-18T06:54:27.181Z,8.4983
2023-04-18T06:55:27.734Z,8.5061
2023-04-18T06:56:28.310Z,8.4724
2023-04-18T06:57:28.784Z,8.4987
2023-04-18T06:58:29.325Z,8.5155
2023-04-18T06:59:29.991Z,8.5458
2023-04-18T07:00:30.708Z,8.6179
2023-04-18T07:01:31.286Z,8.4922
2023-04-18T07:02:32.199Z,8.4890
2023-04-18T07:03:33.063Z,8.4651
2023-04-18T07:04:34.854Z,8.4750
2023-04-18T07:05:35.438Z,8.5293
2023-04-18T07:06:36.094Z,8.5110
2023-04-18T07:07:36.699Z,8.5031
2023-04-18T07:08:37.412Z,8.4910
2023-04-18T07:09:38.023Z,8.6048
2023-04-18T07:10:38.623Z,8.6956
2023-04-18T07:11:39.193Z,8.6553
2023-04-18T07:12:39.751Z,8.7094
2023-04-18T07:13:41.382Z,8.6948
2023-04-18T07:14:42.012Z,8.6176
2023-04-18T07:15:42.569Z,8.5666
2023-04-18T07:16:43.210Z,8.6806
2023-04-18T07:17:43.768Z,8.6670
2023-04-18T07:18:44.373Z,8.6892
2023-04-18T07:19:45.020Z,8.8382
2023-04-18T07:20:45.591Z,8.9103
2023-04-18T07:21:46.267Z,8.8715
2023-04-18T07:22:46.870Z,8.8369
2023-04-18T07:23:47.494Z,8.8753
2023-04-18T07:24:48.138Z,8.9375
2023-04-18T07:25:48.704Z,9.0103
2023-04-18T07:26:49.263Z,9.0098
2023-04-18T07:27:49.834Z,9.1128
2023-04-18T07:28:50.393Z,9.0999
2023-04-18T07:29:51.015Z,9.1100
2023-04-18T07:30:51.621Z,8.9414
2023-04-18T07:31:52.246Z,8.9560
2023-04-18T07:32:52.878Z,9.1208
2023-04-18T07:33:53.466Z,8.9979
2023-04-18T07:34:54.069Z,9.0372
2023-04-18T07:35:54.622Z,9.0461
2023-04-18T07:36:55.190Z,8.9515
2023-04-18T07:37:55.748Z,9.1143
2023-04-18T07:38:56.347Z,9.1660
2023-04-18T07:39:56.859Z,9.3432
2023-04-18T07:40:57.437Z,9.3151
2023-04-18T07:41:57.981Z,9.0573
2023-04-18T07:42:58.544Z,9.1042
2023-04-18T07:43:59.120Z,9.1928
2023-04-18T07:44:59.746Z,9.2122
2023-04-18T07:46:00.323Z,9.2887
2023-04-18T07:47:00.881Z,9.2537
2023-04-18T07:48:01.448Z,9.2997
2023-04-18T07:49:02.316Z,9.4480
2023-04-18T07:50:02.837Z,9.3122
2023-04-18T07:51:03.354Z,9.2724
2023-04-18T07:52:03.881Z,9.3122
2023-04-18T07:53:04.427Z,9.3790
2023-04-18T07:54:04.973Z,9.4443
2023-04-18T07:55:05.580Z,9.5651
2023-04-18T07:56:06.152Z,9.5593
2023-04-18T07:57:06.734Z,9.5824
2023-04-18T07:58:07.263Z,9.6097
2023-04-18T07:59:07.881Z,9.6512
2023-04-18T08:00:08.415Z,9.6736
2023-04-18T08:01:09.013Z,9.8775
2023-04-18T08:02:09.579Z,9.8060
2023-04-18T08:03:10.193Z,9.9477
2023-04-18T08:04:11.321Z,9.9493
2023-04-18T08:05:12.633Z,10.1020
2023-04-18T08:06:13.224Z,9.9634
2023-04-18T08:07:13.730Z,10.0597
2023-04-18T08:08:14.279Z,9.9798
2023-04-18T08:09:15.253Z,9.9008
2023-04-18T08:10:16.581Z,10.0180
2023-04-18T08:11:17.119Z,10.1592
2023-04-18T08:12:17.668Z,10.2580
2023-04-18T08:13:18.193Z,10.1531
2023-04-18T08:14:18.744Z,10.2892
2023-04-18T08:15:19.256Z,10.2379
2023-04-18T08:16:19.860Z,10.1242
2023-04-18T08:17:20.424Z,10.3271
2023-04-18T08:18:21.023Z,10.3907
2023-04-18T08:19:21.528Z,10.6023
2023-04-18T08:20:22.114Z,10.3734
2023-04-18T08:21:22.814Z,10.4338
2023-04-18T08:22:23.334Z,10.4254
2023-04-18T08:23:23.801Z,10.5555
2023-04-18T08:24:24.309Z,10.7030
2023-04-18T08:25:24.865Z,10.2983
2023-04-18T08:26:25.332Z,10.0499
2023-04-18T08:27:25.880Z,9.9475
2023-04-18T08:28:26.335Z,10.1003
2023-04-18T08:29:26.922Z,10.0377
2023-04-18T08:30:27.421Z,10.1218
2023-04-18T08:31:28.026Z,9.9513
2023-04-18T08:32:28.685Z,9.8458
2023-04-18T08:33:29.211Z,9.8650
2023-04-18T08:34:29.831Z,9.9088
2023-04-18T08:35:30.433Z,9.9810
2023-04-18T08:36:31.030Z,9.8105
2023-04-18T08:37:31.568Z,9.8287
2023-04-18T08:38:32.113Z,9.8115
2023-04-18T08:39:32.624Z,9.6472
2023-04-18T08:40:33.214Z,9.7319
2023-04-18T08:41:33.775Z,9.6608
2023-04-18T08:42:34.305Z,9.7385
2023-04-18T08:43:34.785Z,9.7821
2023-04-18T08:44:35.293Z,10.0508
2023-04-18T08:45:35.955Z,10.1146
2023-04-18T08:46:36.599Z,10.0550
2023-04-18T08:47:37.208Z,10.0449
2023-04-18T08:48:37.773Z,9.9348
2023-04-18T08:49:38.338Z,9.9677
2023-04-18T08:50:38.927Z,10.0009
2023-04-18T08:51:39.470Z,10.0928
2023-04-18T08:52:40.013Z,10.0967
2023-04-18T08:53:40.576Z,10.3294
2023-04-18T08:54:41.069Z,10.5933
2023-04-18T08:55:41.623Z,10.5574
2023-04-18T08:56:42.139Z,10.3648
2023-04-18T08:57:42.657Z,10.4592
2023-04-18T08:58:43.211Z,10.3224
2023-04-18T08:59:44.460Z,10.2921
2023-04-18T09:00:44.772Z,10.5231
2023-04-18T09:01:45.398Z,10.2567
2023-04-18T09:02:45.986Z,10.3009
2023-04-18T09:03:46.654Z,10.3019
2023-04-18T09:04:47.253Z,10.3453
2023-04-18T09:05:47.804Z,10.3085
2023-04-18T09:06:48.301Z,10.3341
2023-04-18T09:07:48.856Z,10.3457
2023-04-18T09:08:49.405Z,10.3212
2023-04-18T09:09:50.006Z,10.4751
2023-04-18T09:10:50.599Z,10.5153
2023-04-18T09:11:51.127Z,10.5604
2023-04-18T09:12:51.649Z,10.5677
2023-04-18T09:13:52.166Z,10.6164
2023-04-18T09:14:52.730Z,10.9370
2023-04-18T09:15:53.288Z,10.7549
2023-04-18T09:16:54.016Z,10.8422
2023-04-18T09:17:54.634Z,10.7731
2023-04-18T09:18:55.108Z,10.5881
2023-04-18T09:19:55.613Z,10.4780
2023-04-18T09:20:56.192Z,10.3755
2023-04-18T09:21:56.713Z,10.1922
2023-04-18T09:22:57.288Z,10.4475
2023-04-18T09:23:57.835Z,10.5263
2023-04-18T09:24:58.360Z,10.2204
2023-04-18T09:25:58.916Z,10.2963
2023-04-18T09:26:59.481Z,10.3466
2023-04-18T09:28:00.010Z,10.4285
2023-04-18T09:29:00.652Z,10.5347
2023-04-18T09:30:01.190Z,10.6572
2023-04-18T09:31:01.891Z,10.7377
2023-04-18T09:32:02.495Z,10.9209
2023-04-18T09:33:03.922Z,10.8635
2023-04-18T09:34:04.525Z,10.9187
2023-04-18T09:35:05.129Z,10.8464
2023-04-18T09:36:05.855Z,10.8608
2023-04-18T09:37:07.501Z,10.7269
2023-04-18T09:38:08.148Z,10.6142
2023-04-18T09:39:08.694Z,10.4197
2023-04-18T09:40:09.443Z,10.3420
2023-04-18T09:41:10.003Z,10.4278
2023-04-18T09:42:10.560Z,10.5016
2023-04-18T09:43:11.101Z,10.7881
2023-04-18T09:44:14.292Z,11.0040
2023-04-18T09:45:13.963Z,11.0138
2023-04-18T09:46:14.563Z,10.9797
2023-04-18T09:47:15.082Z,11.0832
2023-04-18T09:48:16.598Z,11.0578
2023-04-18T09:49:17.664Z,10.8051
2023-04-18T09:50:19.153Z,10.7638
2023-04-18T09:51:19.715Z,10.6253
2023-04-18T09:52:20.216Z,10.6347
2023-04-18T09:53:21.070Z,10.6581
2023-04-18T09:54:21.962Z,10.4581
2023-04-18T09:55:22.684Z,10.4870
2023-04-18T09:56:23.410Z,10.4492
2023-04-18T09:57:24.053Z,10.6395
2023-04-18T09:58:24.544Z,10.7666
2023-04-18T09:59:25.089Z,10.9481
2023-04-18T10:00:25.677Z,11.1032
2023-04-18T10:01:26.301Z,11.1219
2023-04-18T10:02:27.018Z,11.0347
2023-04-18T10:03:27.834Z,11.0261
2023-04-18T10:04:28.566Z,11.2740
2023-04-18T10:05:29.292Z,11.5130
2023-04-18T10:06:29.875Z,11.2873
2023-04-18T10:07:30.370Z,11.5728
2023-04-18T10:08:30.948Z,11.7660
2023-04-18T10:09:31.497Z,11.9815
2023-04-18T10:10:32.201Z,12.0011
2023-04-18T10:11:32.709Z,11.6856
2023-04-18T10:12:33.201Z,11.5535
2023-04-18T10:13:33.731Z,11.5896
2023-04-18T10:14:34.253Z,11.6884
2023-04-18T10:15:34.791Z,11.7288
2023-04-18T10:16:36.304Z,11.8504
2023-04-18T10:17:37.220Z,12.1149
2023-04-18T10:18:37.776Z,11.9836
2023-04-18T10:19:38.529Z,11.6510
2023-04-18T10:20:38.998Z,11.8708
2023-04-18T10:21:39.557Z,11.7433
2023-04-18T10:22:40.032Z,11.6237
2023-04-18T10:23:40.625Z,12.0229
2023-04-18T10:24:41.174Z,12.3080
2023-04-18T10:25:43.170Z,12.4966
2023-04-18T10:27:18.942Z,12.7518
2023-04-18T10:28:19.911Z,12.5892
2023-04-18T10:29:20.811Z,12.7471
2023-04-18T10:30:21.878Z,12.2544
2023-04-18T10:31:22.976Z,11.8905
2023-04-18T10:32:24.098Z,11.6052
2023-04-18T10:33:30.834Z,11.6751
2023-04-18T10:34:26.913Z,11.6697
2023-04-18T10:35:27.899Z,11.3285
2023-04-18T10:36:28.975Z,11.3294
2023-04-18T10:37:29.959Z,11.2578
2023-04-18T10:38:30.997Z,11.1657
2023-04-18T10:39:31.989Z,11.2426
2023-04-18T10:40:32.964Z,11.5687
2023-04-18T10:41:33.938Z,11.6893
2023-04-18T10:42:34.917Z,11.8404
2023-04-18T10:43:35.935Z,11.9273
2023-04-18T10:44:36.916Z,11.7915
2023-04-18T10:45:37.878Z,11.8519
2023-04-18T10:46:38.897Z,11.8960
2023-04-18T10:47:40.053Z,11.7464
2023-04-18T10:48:41.428Z,11.7266
2023-04-18T10:49:42.366Z,12.0810
2023-04-18T10:50:43.340Z,12.0108
2023-04-18T10:51:44.282Z,11.9408
2023-04-18T10:52:45.238Z,12.1539
2023-04-18T10:53:46.194Z,12.0634
2023-04-18T10:54:47.068Z,11.7387
2023-04-18T10:55:47.974Z,11.8853
2023-04-18T10:56:48.903Z,11.8714
2023-04-18T10:57:49.858Z,11.8775
2023-04-18T10:58:50.784Z,11.9317
2023-04-18T10:59:51.894Z,11.6924
2023-04-18T11:00:52.874Z,12.0311
2023-04-18T11:01:53.866Z,12.0343
2023-04-18T11:02:55.015Z,12.3422
2023-04-18T11:03:56.278Z,12.3749
2023-04-18T11:04:57.412Z,12.6469
2023-04-18T11:05:58.305Z,12.3658
2023-04-18T11:06:59.853Z,12.5381
2023-04-18T11:08:00.810Z,12.4540
2023-04-18T11:09:02.386Z,12.2688
2023-04-18T11:10:03.316Z,11.7467
2023-04-18T11:11:04.245Z,11.7953
2023-04-18T11:12:05.177Z,12.0205
2023-04-18T11:13:06.139Z,12.0895
2023-04-18T11:14:07.317Z,11.7587
2023-04-18T11:15:08.298Z,11.9631
2023-04-18T11:16:09.226Z,11.9776
2023-04-18T11:17:10.144Z,11.9275
2023-04-18T11:18:11.063Z,12.2954
2023-04-18T11:19:12.018Z,12.4772
2023-04-18T11:20:12.975Z,12.4276
2023-04-18T11:21:13.883Z,12.5648
2023-04-18T11:22:14.788Z,12.5584
2023-04-18T11:23:15.714Z,12.4136
2023-04-18T11:24:16.648Z,12.7518
2023-04-18T11:25:17.591Z,12.8727
2023-04-18T11:26:18.469Z,12.7184
2023-04-18T11:27:19.363Z,12.2787
2023-04-18T11:28:20.283Z,12.0697
2023-04-18T11:29:21.188Z,12.0193
2023-04-18T11:30:22.085Z,12.0349
2023-04-18T11:31:23.050Z,11.9803
2023-04-18T11:32:24.068Z,12.0818
2023-04-18T11:33:25.308Z,12.2538
2023-04-18T11:34:26.256Z,12.4795
2023-04-18T11:35:27.195Z,12.4229
2023-04-18T11:36:28.123Z,12.3175
2023-04-18T11:37:29.052Z,12.4317
2023-04-18T11:38:29.952Z,12.8101
2023-04-18T11:39:30.848Z,12.8427
2023-04-18T11:40:31.823Z,12.6620
2023-04-18T11:41:32.707Z,12.4686
2023-04-18T11:42:33.617Z,12.3319
2023-04-18T11:43:34.513Z,13.4802
2023-04-18T11:44:36.323Z,13.4451
2023-04-18T11:45:37.494Z,13.1867
2023-04-18T11:46:38.641Z,13.2449
2023-04-18T11:47:39.628Z,13.3849
2023-04-18T11:48:40.574Z,13.7351
2023-04-18T11:49:41.422Z,15.3614
2023-04-18T11:50:42.286Z,14.9666
2023-04-18T11:51:43.125Z,14.7541
2023-04-18T11:52:43.969Z,14.9056
2023-04-18T11:53:44.840Z,14.5741
2023-04-18T11:54:45.674Z,14.6559
2023-04-18T11:55:46.522Z,16.0569
2023-04-18T11:56:47.296Z,16.3558
2023-04-18T11:57:48.144Z,16.1218
2023-04-18T11:58:49.009Z,14.9223
2023-04-18T11:59:49.897Z,15.6915
2023-04-18T12:00:50.713Z,13.9131
2023-04-18T12:01:53.082Z,13.5429
2023-04-18T12:02:52.243Z,13.6863
2023-04-18T12:03:53.377Z,13.9432
2023-04-18T12:04:55.304Z,14.0455
2023-04-18T12:05:55.215Z,14.4171
2023-04-18T12:06:56.544Z,14.5473
2023-04-18T12:07:57.371Z,14.5015
2023-04-18T12:08:58.239Z,14.9028
2023-04-18T12:09:59.033Z,14.6768
2023-04-18T12:10:59.884Z,15.6815
2023-04-18T12:12:00.723Z,14.1153
2023-04-18T12:13:01.586Z,13.7618
2023-04-18T12:14:04.017Z,13.5604
2023-04-18T12:15:02.857Z,13.8825
2023-04-18T12:16:04.752Z,13.8378
2023-04-18T12:17:05.587Z,14.0312
2023-04-18T12:18:06.483Z,14.1298
2023-04-18T12:19:07.303Z,14.1998
2023-04-18T12:20:08.134Z,14.1630
2023-04-18T12:21:08.994Z,14.2147
2023-04-18T12:22:09.830Z,14.2653
2023-04-18T12:23:10.718Z,14.7305
2023-04-18T12:24:12.086Z,15.0757
2023-04-18T12:25:13.522Z,14.7171
2023-04-18T12:26:14.420Z,14.5985
2023-04-18T12:27:15.228Z,15.0511
2023-04-18T12:28:16.081Z,16.0256
2023-04-18T12:29:16.943Z,16.8925